sensor_id;sensor_type;location;lat;lon;timestamp;pressure;altitude;pressure_sealevel;temperature
15062;BMP180;7630;50.306;8.566;2022-11-15T00:03:58;97479.00;;;13.50
15062;BMP180;7630;50.306;8.566;2022-11-15T00:08:00;97472.00;;;12.90
15062;BMP180;7630;50.306;8.566;2022-11-15T00:12:01;97468.00;;;13.50
15062;BMP180;7630;50.306;8.566;2022-11-15T00:16:02;97452.00;;;11.30
15062;BMP180;7630;50.306;8.566;2022-11-15T00:20:04;97457.00;;;11.70
15062;BMP180;7630;50.306;8.566;2022-11-15T00:24:05;97448.00;;;10.90
15062;BMP180;7630;50.306;8.566;2022-11-15T00:28:07;97448.00;;;11.40
15062;BMP180;7630;50.306;8.566;2022-11-15T00:32:08;97444.00;;;11.20
15062;BMP180;7630;50.306;8.566;2022-11-15T00:36:09;97456.00;;;12.00
15062;BMP180;7630;50.306;8.566;2022-11-15T00:40:11;97454.00;;;13.30
15062;BMP180;7630;50.306;8.566;2022-11-15T00:44:13;97444.00;;;13.40
15062;BMP180;7630;50.306;8.566;2022-11-15T00:48:14;97436.00;;;14.30
15062;BMP180;7630;50.306;8.566;2022-11-15T00:52:17;97438.00;;;12.20
15062;BMP180;7630;50.306;8.566;2022-11-15T00:56:19;97432.00;;;13.30
15062;BMP180;7630;50.306;8.566;2022-11-15T01:00:20;97431.00;;;13.90
15062;BMP180;7630;50.306;8.566;2022-11-15T01:04:21;97426.00;;;14.30
15062;BMP180;7630;50.306;8.566;2022-11-15T01:08:22;97427.00;;;14.10
15062;BMP180;7630;50.306;8.566;2022-11-15T01:12:23;97424.00;;;14.20
15062;BMP180;7630;50.306;8.566;2022-11-15T01:16:24;97426.00;;;15.00
15062;BMP180;7630;50.306;8.566;2022-11-15T01:20:25;97425.00;;;13.20
15062;BMP180;7630;50.306;8.566;2022-11-15T01:24:26;97431.00;;;14.80
15062;BMP180;7630;50.306;8.566;2022-11-15T01:28:35;97441.00;;;15.30
15062;BMP180;7630;50.306;8.566;2022-11-15T01:32:37;97426.00;;;15.10
15062;BMP180;7630;50.306;8.566;2022-11-15T01:36:38;97424.00;;;13.90
15062;BMP180;7630;50.306;8.566;2022-11-15T01:40:39;97416.00;;;13.90
15062;BMP180;7630;50.306;8.566;2022-11-15T01:44:50;97402.00;;;13.30
15062;BMP180;7630;50.306;8.566;2022-11-15T01:48:53;97403.00;;;13.80
15062;BMP180;7630;50.306;8.566;2022-11-15T01:52:55;97417.00;;;13.60
15062;BMP180;7630;50.306;8.566;2022-11-15T01:57:02;97412.00;;;13.00
15062;BMP180;7630;50.306;8.566;2022-11-15T02:01:04;97404.00;;;13.00
15062;BMP180;7630;50.306;8.566;2022-11-15T02:05:06;97407.00;;;13.00
15062;BMP180;7630;50.306;8.566;2022-11-15T02:09:07;97391.00;;;13.30
15062;BMP180;7630;50.306;8.566;2022-11-15T02:13:08;97394.00;;;13.50
15062;BMP180;7630;50.306;8.566;2022-11-15T02:26:11;97392.00;;;13.10
15062;BMP180;7630;50.306;8.566;2022-11-15T02:30:23;97385.00;;;13.60
15062;BMP180;7630;50.306;8.566;2022-11-15T02:38:47;97376.00;;;13.80
15062;BMP180;7630;50.306;8.566;2022-11-15T02:42:57;97386.00;;;13.30
15062;BMP180;7630;50.306;8.566;2022-11-15T02:47:19;97367.00;;;13.70
15062;BMP180;7630;50.306;8.566;2022-11-15T02:51:21;97369.00;;;12.80
15062;BMP180;7630;50.306;8.566;2022-11-15T02:55:31;97356.00;;;13.20
15062;BMP180;7630;50.306;8.566;2022-11-15T03:04:28;97362.00;;;13.10
15062;BMP180;7630;50.306;8.566;2022-11-15T03:08:01;97365.00;;;12.90
15062;BMP180;7630;50.306;8.566;2022-11-15T03:12:28;97364.00;;;13.10
15062;BMP180;7630;50.306;8.566;2022-11-15T03:16:41;97351.00;;;13.10
15062;BMP180;7630;50.306;8.566;2022-11-15T03:20:43;97358.00;;;13.30
15062;BMP180;7630;50.306;8.566;2022-11-15T03:24:47;97360.00;;;13.90
15062;BMP180;7630;50.306;8.566;2022-11-15T03:28:56;97353.00;;;14.20
15062;BMP180;7630;50.306;8.566;2022-11-15T03:32:58;97359.00;;;14.70
15062;BMP180;7630;50.306;8.566;2022-11-15T03:37:01;97359.00;;;14.80
15062;BMP180;7630;50.306;8.566;2022-11-15T03:41:08;97360.00;;;14.50
15062;BMP180;7630;50.306;8.566;2022-11-15T03:49:29;97355.00;;;13.60
15062;BMP180;7630;50.306;8.566;2022-11-15T03:53:31;97351.00;;;12.90
15062;BMP180;7630;50.306;8.566;2022-11-15T03:57:33;97347.00;;;13.20
15062;BMP180;7630;50.306;8.566;2022-11-15T04:01:34;97352.00;;;12.90
15062;BMP180;7630;50.306;8.566;2022-11-15T04:05:36;97353.00;;;12.90
15062;BMP180;7630;50.306;8.566;2022-11-15T04:09:37;97357.00;;;13.20
15062;BMP180;7630;50.306;8.566;2022-11-15T04:13:56;97351.00;;;13.70
15062;BMP180;7630;50.306;8.566;2022-11-15T04:17:57;97362.00;;;13.70
15062;BMP180;7630;50.306;8.566;2022-11-15T04:21:58;97356.00;;;14.20
15062;BMP180;7630;50.306;8.566;2022-11-15T04:26:20;97351.00;;;14.30
15062;BMP180;7630;50.306;8.566;2022-11-15T04:30:22;97353.00;;;14.50
15062;BMP180;7630;50.306;8.566;2022-11-15T04:34:23;97357.00;;;14.00
15062;BMP180;7630;50.306;8.566;2022-11-15T04:38:24;97350.00;;;14.20
15062;BMP180;7630;50.306;8.566;2022-11-15T04:42:25;97343.00;;;14.10
15062;BMP180;7630;50.306;8.566;2022-11-15T04:46:27;97338.00;;;14.20
15062;BMP180;7630;50.306;8.566;2022-11-15T04:50:28;97330.00;;;14.30
15062;BMP180;7630;50.306;8.566;2022-11-15T04:54:29;97321.00;;;14.80
15062;BMP180;7630;50.306;8.566;2022-11-15T04:58:30;97319.00;;;15.00
15062;BMP180;7630;50.306;8.566;2022-11-15T05:02:31;97324.00;;;14.50
15062;BMP180;7630;50.306;8.566;2022-11-15T05:06:34;97314.00;;;13.30
15062;BMP180;7630;50.306;8.566;2022-11-15T05:10:35;97326.00;;;13.40
15062;BMP180;7630;50.306;8.566;2022-11-15T05:14:36;97315.00;;;13.70
15062;BMP180;7630;50.306;8.566;2022-11-15T05:18:37;97300.00;;;12.90
15062;BMP180;7630;50.306;8.566;2022-11-15T05:22:40;97303.00;;;12.70
15062;BMP180;7630;50.306;8.566;2022-11-15T05:26:41;97296.00;;;13.00
15062;BMP180;7630;50.306;8.566;2022-11-15T05:30:42;97304.00;;;13.00
15062;BMP180;7630;50.306;8.566;2022-11-15T05:34:43;97295.00;;;12.40
15062;BMP180;7630;50.306;8.566;2022-11-15T05:38:45;97285.00;;;12.10
15062;BMP180;7630;50.306;8.566;2022-11-15T05:42:48;97294.00;;;12.70
15062;BMP180;7630;50.306;8.566;2022-11-15T05:46:50;97298.00;;;11.60
15062;BMP180;7630;50.306;8.566;2022-11-15T05:50:54;97285.00;;;12.30
15062;BMP180;7630;50.306;8.566;2022-11-15T05:54:56;97281.00;;;12.70
15062;BMP180;7630;50.306;8.566;2022-11-15T05:58:58;97284.00;;;13.90
15062;BMP180;7630;50.306;8.566;2022-11-15T06:03:00;97286.00;;;13.90
15062;BMP180;7630;50.306;8.566;2022-11-15T06:07:01;97295.00;;;14.10
15062;BMP180;7630;50.306;8.566;2022-11-15T06:11:06;97300.00;;;13.00
15062;BMP180;7630;50.306;8.566;2022-11-15T06:15:08;97283.00;;;12.60
15062;BMP180;7630;50.306;8.566;2022-11-15T06:19:09;97295.00;;;12.20
15062;BMP180;7630;50.306;8.566;2022-11-15T06:23:10;97297.00;;;11.70
15062;BMP180;7630;50.306;8.566;2022-11-15T06:27:11;97330.00;;;11.70
15062;BMP180;7630;50.306;8.566;2022-11-15T06:31:12;97301.00;;;11.90
15062;BMP180;7630;50.306;8.566;2022-11-15T06:35:14;97310.00;;;12.10
15062;BMP180;7630;50.306;8.566;2022-11-15T06:39:15;97330.00;;;12.70
15062;BMP180;7630;50.306;8.566;2022-11-15T06:43:16;97307.00;;;12.60
15062;BMP180;7630;50.306;8.566;2022-11-15T06:47:17;97310.00;;;13.30
15062;BMP180;7630;50.306;8.566;2022-11-15T06:51:18;97304.00;;;13.60
15062;BMP180;7630;50.306;8.566;2022-11-15T06:55:19;97297.00;;;13.80
15062;BMP180;7630;50.306;8.566;2022-11-15T06:59:20;97293.00;;;14.10
15062;BMP180;7630;50.306;8.566;2022-11-15T07:03:22;97301.00;;;13.70
15062;BMP180;7630;50.306;8.566;2022-11-15T07:07:23;97296.00;;;14.00
15062;BMP180;7630;50.306;8.566;2022-11-15T07:11:24;97302.00;;;13.60
15062;BMP180;7630;50.306;8.566;2022-11-15T07:15:25;97300.00;;;13.40
15062;BMP180;7630;50.306;8.566;2022-11-15T07:19:26;97292.00;;;13.50
15062;BMP180;7630;50.306;8.566;2022-11-15T07:23:27;97312.00;;;13.90
15062;BMP180;7630;50.306;8.566;2022-11-15T07:27:29;97307.00;;;13.50
15062;BMP180;7630;50.306;8.566;2022-11-15T07:31:30;97313.00;;;14.40
15062;BMP180;7630;50.306;8.566;2022-11-15T07:35:32;97302.00;;;15.50
15062;BMP180;7630;50.306;8.566;2022-11-15T07:39:32;97309.00;;;15.40
15062;BMP180;7630;50.306;8.566;2022-11-15T07:43:34;97301.00;;;14.90
15062;BMP180;7630;50.306;8.566;2022-11-15T07:47:35;97310.00;;;15.70
15062;BMP180;7630;50.306;8.566;2022-11-15T07:51:36;97317.00;;;15.80
15062;BMP180;7630;50.306;8.566;2022-11-15T07:55:39;97318.00;;;15.80
15062;BMP180;7630;50.306;8.566;2022-11-15T07:59:41;97321.00;;;15.50
15062;BMP180;7630;50.306;8.566;2022-11-15T08:03:42;97328.00;;;15.70
15062;BMP180;7630;50.306;8.566;2022-11-15T08:07:43;97308.00;;;14.90
15062;BMP180;7630;50.306;8.566;2022-11-15T08:11:44;97313.00;;;14.80
15062;BMP180;7630;50.306;8.566;2022-11-15T08:15:45;97317.00;;;15.60
15062;BMP180;7630;50.306;8.566;2022-11-15T08:19:46;97320.00;;;15.70
15062;BMP180;7630;50.306;8.566;2022-11-15T08:23:48;97308.00;;;15.10
15062;BMP180;7630;50.306;8.566;2022-11-15T08:27:56;97309.00;;;15.90
15062;BMP180;7630;50.306;8.566;2022-11-15T08:31:55;97317.00;;;16.20
15062;BMP180;7630;50.306;8.566;2022-11-15T08:35:57;97311.00;;;16.10
15062;BMP180;7630;50.306;8.566;2022-11-15T08:39:59;97309.00;;;16.50
15062;BMP180;7630;50.306;8.566;2022-11-15T08:44:00;97309.00;;;14.10
15062;BMP180;7630;50.306;8.566;2022-11-15T08:48:02;97301.00;;;14.20
15062;BMP180;7630;50.306;8.566;2022-11-15T08:52:03;97301.00;;;14.10
15062;BMP180;7630;50.306;8.566;2022-11-15T08:56:07;97310.00;;;15.10
15062;BMP180;7630;50.306;8.566;2022-11-15T09:00:09;97318.00;;;14.50
15062;BMP180;7630;50.306;8.566;2022-11-15T09:04:12;97311.00;;;14.10
15062;BMP180;7630;50.306;8.566;2022-11-15T09:08:13;97310.00;;;14.20
15062;BMP180;7630;50.306;8.566;2022-11-15T09:12:16;97314.00;;;14.60
15062;BMP180;7630;50.306;8.566;2022-11-15T09:16:17;97309.00;;;14.80
15062;BMP180;7630;50.306;8.566;2022-11-15T09:20:18;97308.00;;;15.40
15062;BMP180;7630;50.306;8.566;2022-11-15T09:24:19;97302.00;;;15.20
15062;BMP180;7630;50.306;8.566;2022-11-15T09:28:21;97306.00;;;15.10
15062;BMP180;7630;50.306;8.566;2022-11-15T09:32:23;97310.00;;;15.00
15062;BMP180;7630;50.306;8.566;2022-11-15T09:36:24;97304.00;;;15.00
15062;BMP180;7630;50.306;8.566;2022-11-15T09:40:26;97294.00;;;15.80
15062;BMP180;7630;50.306;8.566;2022-11-15T09:44:41;97304.00;;;15.60
15062;BMP180;7630;50.306;8.566;2022-11-15T09:49:00;97298.00;;;15.80
15062;BMP180;7630;50.306;8.566;2022-11-15T09:53:03;97296.00;;;16.00
15062;BMP180;7630;50.306;8.566;2022-11-15T09:57:16;97294.00;;;16.60
15062;BMP180;7630;50.306;8.566;2022-11-15T10:05:31;97284.00;;;15.40
15062;BMP180;7630;50.306;8.566;2022-11-15T10:14:14;97268.00;;;15.50
15062;BMP180;7630;50.306;8.566;2022-11-15T10:22:29;97252.00;;;16.00
15062;BMP180;7630;50.306;8.566;2022-11-15T10:26:31;97247.00;;;16.40
15062;BMP180;7630;50.306;8.566;2022-11-15T10:30:36;97266.00;;;17.00
15062;BMP180;7630;50.306;8.566;2022-11-15T10:34:37;97258.00;;;16.90
15062;BMP180;7630;50.306;8.566;2022-11-15T10:38:53;97260.00;;;17.60
15062;BMP180;7630;50.306;8.566;2022-11-15T10:43:16;97254.00;;;17.00
15062;BMP180;7630;50.306;8.566;2022-11-15T10:47:27;97260.00;;;17.60
15062;BMP180;7630;50.306;8.566;2022-11-15T10:51:29;97234.00;;;17.80
15062;BMP180;7630;50.306;8.566;2022-11-15T10:55:31;97226.00;;;16.80
15062;BMP180;7630;50.306;8.566;2022-11-15T10:59:36;97219.00;;;14.70
15062;BMP180;7630;50.306;8.566;2022-11-15T11:03:40;97211.00;;;16.70
15062;BMP180;7630;50.306;8.566;2022-11-15T11:07:45;97193.00;;;17.00
15062;BMP180;7630;50.306;8.566;2022-11-15T11:11:50;97194.00;;;16.60
15062;BMP180;7630;50.306;8.566;2022-11-15T11:20:37;97177.00;;;16.50
15062;BMP180;7630;50.306;8.566;2022-11-15T11:24:59;97177.00;;;16.20
15062;BMP180;7630;50.306;8.566;2022-11-15T11:33:59;97152.00;;;16.50
15062;BMP180;7630;50.306;8.566;2022-11-15T11:37:57;97141.00;;;17.20
15062;BMP180;7630;50.306;8.566;2022-11-15T11:50:36;97143.00;;;16.10
15062;BMP180;7630;50.306;8.566;2022-11-15T11:58:54;97144.00;;;15.20
15062;BMP180;7630;50.306;8.566;2022-11-15T12:07:23;97138.00;;;15.70
15062;BMP180;7630;50.306;8.566;2022-11-15T12:16:03;97119.00;;;15.60
15062;BMP180;7630;50.306;8.566;2022-11-15T12:20:42;97120.00;;;15.60
15062;BMP180;7630;50.306;8.566;2022-11-15T12:24:26;97116.00;;;16.00
15062;BMP180;7630;50.306;8.566;2022-11-15T12:28:34;97106.00;;;16.10
15062;BMP180;7630;50.306;8.566;2022-11-15T12:32:35;97092.00;;;15.50
15062;BMP180;7630;50.306;8.566;2022-11-15T12:36:40;97099.00;;;15.60
15062;BMP180;7630;50.306;8.566;2022-11-15T12:45:29;97108.00;;;15.10
15062;BMP180;7630;50.306;8.566;2022-11-15T12:49:42;97106.00;;;15.00
15062;BMP180;7630;50.306;8.566;2022-11-15T12:53:35;97106.00;;;15.30
15062;BMP180;7630;50.306;8.566;2022-11-15T12:57:38;97094.00;;;15.60
15062;BMP180;7630;50.306;8.566;2022-11-15T13:05:51;97073.00;;;16.20
15062;BMP180;7630;50.306;8.566;2022-11-15T13:09:52;97068.00;;;16.10
15062;BMP180;7630;50.306;8.566;2022-11-15T13:13:54;97062.00;;;16.50
15062;BMP180;7630;50.306;8.566;2022-11-15T13:17:56;97064.00;;;16.90
15062;BMP180;7630;50.306;8.566;2022-11-15T13:21:57;97056.00;;;15.80
15062;BMP180;7630;50.306;8.566;2022-11-15T13:26:17;97052.00;;;16.30
15062;BMP180;7630;50.306;8.566;2022-11-15T13:30:29;97044.00;;;15.40
15062;BMP180;7630;50.306;8.566;2022-11-15T13:34:32;97042.00;;;15.60
15062;BMP180;7630;50.306;8.566;2022-11-15T13:38:39;97043.00;;;15.80
15062;BMP180;7630;50.306;8.566;2022-11-15T13:42:40;97043.00;;;16.00
15062;BMP180;7630;50.306;8.566;2022-11-15T13:46:43;97042.00;;;16.40
15062;BMP180;7630;50.306;8.566;2022-11-15T13:50:45;97037.00;;;16.30
15062;BMP180;7630;50.306;8.566;2022-11-15T13:55:01;97031.00;;;16.20
15062;BMP180;7630;50.306;8.566;2022-11-15T13:59:17;97027.00;;;14.60
15062;BMP180;7630;50.306;8.566;2022-11-15T14:07:24;97018.00;;;15.70
15062;BMP180;7630;50.306;8.566;2022-11-15T14:11:26;97017.00;;;15.80
15062;BMP180;7630;50.306;8.566;2022-11-15T14:15:36;97014.00;;;15.30
15062;BMP180;7630;50.306;8.566;2022-11-15T14:19:39;97009.00;;;15.50
15062;BMP180;7630;50.306;8.566;2022-11-15T14:23:40;97006.00;;;15.60
15062;BMP180;7630;50.306;8.566;2022-11-15T14:27:44;96996.00;;;15.40
15062;BMP180;7630;50.306;8.566;2022-11-15T14:31:45;96950.00;;;16.10
15062;BMP180;7630;50.306;8.566;2022-11-15T14:35:47;96986.00;;;16.50
15062;BMP180;7630;50.306;8.566;2022-11-15T14:39:48;96964.00;;;15.60
15062;BMP180;7630;50.306;8.566;2022-11-15T14:43:51;96954.00;;;15.40
15062;BMP180;7630;50.306;8.566;2022-11-15T14:47:53;96952.00;;;16.10
15062;BMP180;7630;50.306;8.566;2022-11-15T14:51:54;96949.00;;;15.80
15062;BMP180;7630;50.306;8.566;2022-11-15T14:55:55;96941.00;;;15.50
15062;BMP180;7630;50.306;8.566;2022-11-15T14:59:56;96938.00;;;15.90
15062;BMP180;7630;50.306;8.566;2022-11-15T15:03:57;96930.00;;;15.90
15062;BMP180;7630;50.306;8.566;2022-11-15T15:07:59;96918.00;;;15.80
15062;BMP180;7630;50.306;8.566;2022-11-15T15:12:01;96917.00;;;15.80
15062;BMP180;7630;50.306;8.566;2022-11-15T15:16:04;96907.00;;;15.80
15062;BMP180;7630;50.306;8.566;2022-11-15T15:20:07;96904.00;;;14.50
15062;BMP180;7630;50.306;8.566;2022-11-15T15:24:13;96908.00;;;15.00
15062;BMP180;7630;50.306;8.566;2022-11-15T15:28:15;96902.00;;;15.10
15062;BMP180;7630;50.306;8.566;2022-11-15T15:32:16;96892.00;;;14.70
15062;BMP180;7630;50.306;8.566;2022-11-15T15:36:18;96887.00;;;15.00
15062;BMP180;7630;50.306;8.566;2022-11-15T15:40:21;96874.00;;;14.10
15062;BMP180;7630;50.306;8.566;2022-11-15T15:44:23;96872.00;;;14.40
15062;BMP180;7630;50.306;8.566;2022-11-15T15:48:24;96876.00;;;14.30
15062;BMP180;7630;50.306;8.566;2022-11-15T15:52:25;96871.00;;;15.00
15062;BMP180;7630;50.306;8.566;2022-11-15T15:56:26;96873.00;;;15.00
15062;BMP180;7630;50.306;8.566;2022-11-15T16:00:28;96866.00;;;15.30
15062;BMP180;7630;50.306;8.566;2022-11-15T16:04:30;96854.00;;;15.10
15062;BMP180;7630;50.306;8.566;2022-11-15T16:08:31;96847.00;;;13.90
15062;BMP180;7630;50.306;8.566;2022-11-15T16:12:34;96829.00;;;13.80
15062;BMP180;7630;50.306;8.566;2022-11-15T16:16:36;96832.00;;;13.70
15062;BMP180;7630;50.306;8.566;2022-11-15T16:20:43;96829.00;;;15.00
15062;BMP180;7630;50.306;8.566;2022-11-15T16:24:45;96702.00;;;15.40
15062;BMP180;7630;50.306;8.566;2022-11-15T16:28:46;96822.00;;;15.50
15062;BMP180;7630;50.306;8.566;2022-11-15T16:32:48;96829.00;;;15.60
15062;BMP180;7630;50.306;8.566;2022-11-15T16:36:50;96816.00;;;15.90
15062;BMP180;7630;50.306;8.566;2022-11-15T16:40:51;96817.00;;;15.10
15062;BMP180;7630;50.306;8.566;2022-11-15T16:44:52;96820.00;;;15.00
15062;BMP180;7630;50.306;8.566;2022-11-15T16:48:54;96828.00;;;15.10
15062;BMP180;7630;50.306;8.566;2022-11-15T16:52:56;96834.00;;;15.50
15062;BMP180;7630;50.306;8.566;2022-11-15T16:56:58;96834.00;;;15.00
15062;BMP180;7630;50.306;8.566;2022-11-15T17:00:59;96833.00;;;15.50
15062;BMP180;7630;50.306;8.566;2022-11-15T17:05:00;96766.00;;;15.70
15062;BMP180;7630;50.306;8.566;2022-11-15T17:09:03;96831.00;;;16.40
15062;BMP180;7630;50.306;8.566;2022-11-15T17:13:05;96823.00;;;16.70
15062;BMP180;7630;50.306;8.566;2022-11-15T17:17:08;96818.00;;;16.50
15062;BMP180;7630;50.306;8.566;2022-11-15T17:21:12;96801.00;;;15.00
15062;BMP180;7630;50.306;8.566;2022-11-15T17:25:14;96796.00;;;15.30
15062;BMP180;7630;50.306;8.566;2022-11-15T17:29:15;96798.00;;;15.80
15062;BMP180;7630;50.306;8.566;2022-11-15T17:33:16;96796.00;;;16.40
15062;BMP180;7630;50.306;8.566;2022-11-15T17:37:18;96793.00;;;16.30
15062;BMP180;7630;50.306;8.566;2022-11-15T17:41:19;96781.00;;;15.90
15062;BMP180;7630;50.306;8.566;2022-11-15T17:45:22;96781.00;;;16.00
15062;BMP180;7630;50.306;8.566;2022-11-15T17:49:24;96779.00;;;15.70
15062;BMP180;7630;50.306;8.566;2022-11-15T17:53:25;96778.00;;;15.30
15062;BMP180;7630;50.306;8.566;2022-11-15T17:57:27;96771.00;;;14.80
15062;BMP180;7630;50.306;8.566;2022-11-15T18:01:34;96776.00;;;14.70
15062;BMP180;7630;50.306;8.566;2022-11-15T18:05:36;96767.00;;;14.80
15062;BMP180;7630;50.306;8.566;2022-11-15T18:09:38;96771.00;;;15.10
15062;BMP180;7630;50.306;8.566;2022-11-15T18:13:43;96769.00;;;15.20
15062;BMP180;7630;50.306;8.566;2022-11-15T18:17:47;96765.00;;;15.40
15062;BMP180;7630;50.306;8.566;2022-11-15T18:21:48;96775.00;;;16.20
15062;BMP180;7630;50.306;8.566;2022-11-15T18:25:55;96758.00;;;16.20
15062;BMP180;7630;50.306;8.566;2022-11-15T18:29:57;96761.00;;;16.40
15062;BMP180;7630;50.306;8.566;2022-11-15T18:33:59;96759.00;;;16.50
15062;BMP180;7630;50.306;8.566;2022-11-15T18:38:00;96759.00;;;16.50
15062;BMP180;7630;50.306;8.566;2022-11-15T18:42:01;96745.00;;;16.10
15062;BMP180;7630;50.306;8.566;2022-11-15T18:46:08;96741.00;;;14.90
15062;BMP180;7630;50.306;8.566;2022-11-15T18:50:10;96747.00;;;14.40
15062;BMP180;7630;50.306;8.566;2022-11-15T18:54:13;96747.00;;;13.90
15062;BMP180;7630;50.306;8.566;2022-11-15T18:58:15;96728.00;;;14.40
15062;BMP180;7630;50.306;8.566;2022-11-15T19:02:16;96707.00;;;14.60
15062;BMP180;7630;50.306;8.566;2022-11-15T19:06:25;96724.00;;;15.20
15062;BMP180;7630;50.306;8.566;2022-11-15T19:10:27;96719.00;;;15.40
15062;BMP180;7630;50.306;8.566;2022-11-15T19:14:28;96712.00;;;15.70
15062;BMP180;7630;50.306;8.566;2022-11-15T19:18:31;96714.00;;;15.60
15062;BMP180;7630;50.306;8.566;2022-11-15T19:22:33;96711.00;;;15.40
15062;BMP180;7630;50.306;8.566;2022-11-15T19:26:35;96706.00;;;15.30
15062;BMP180;7630;50.306;8.566;2022-11-15T19:30:39;96709.00;;;15.20
15062;BMP180;7630;50.306;8.566;2022-11-15T19:34:40;96707.00;;;15.20
15062;BMP180;7630;50.306;8.566;2022-11-15T19:38:42;96699.00;;;15.00
15062;BMP180;7630;50.306;8.566;2022-11-15T19:42:44;96701.00;;;15.40
15062;BMP180;7630;50.306;8.566;2022-11-15T19:46:45;96691.00;;;15.30
15062;BMP180;7630;50.306;8.566;2022-11-15T19:50:47;96695.00;;;15.40
15062;BMP180;7630;50.306;8.566;2022-11-15T19:54:49;96691.00;;;15.60
15062;BMP180;7630;50.306;8.566;2022-11-15T19:58:54;96684.00;;;15.40
15062;BMP180;7630;50.306;8.566;2022-11-15T20:02:56;96688.00;;;15.60
15062;BMP180;7630;50.306;8.566;2022-11-15T20:06:58;96680.00;;;15.20
15062;BMP180;7630;50.306;8.566;2022-11-15T20:11:01;96676.00;;;15.30
15062;BMP180;7630;50.306;8.566;2022-11-15T20:15:04;96673.00;;;15.30
15062;BMP180;7630;50.306;8.566;2022-11-15T20:19:05;96673.00;;;15.40
15062;BMP180;7630;50.306;8.566;2022-11-15T20:23:08;96668.00;;;15.30
15062;BMP180;7630;50.306;8.566;2022-11-15T20:27:10;96663.00;;;14.90
15062;BMP180;7630;50.306;8.566;2022-11-15T20:31:11;96663.00;;;15.00
15062;BMP180;7630;50.306;8.566;2022-11-15T20:35:13;96673.00;;;14.90
15062;BMP180;7630;50.306;8.566;2022-11-15T20:39:14;96661.00;;;15.50
15062;BMP180;7630;50.306;8.566;2022-11-15T20:43:18;96660.00;;;15.60
15062;BMP180;7630;50.306;8.566;2022-11-15T20:47:20;96658.00;;;15.80
15062;BMP180;7630;50.306;8.566;2022-11-15T20:51:23;96660.00;;;15.80
15062;BMP180;7630;50.306;8.566;2022-11-15T20:55:24;96649.00;;;15.30
15062;BMP180;7630;50.306;8.566;2022-11-15T20:59:26;96646.00;;;15.60
15062;BMP180;7630;50.306;8.566;2022-11-15T21:03:27;96633.00;;;15.40
15062;BMP180;7630;50.306;8.566;2022-11-15T21:07:29;96628.00;;;15.70
15062;BMP180;7630;50.306;8.566;2022-11-15T21:11:30;96632.00;;;15.80
15062;BMP180;7630;50.306;8.566;2022-11-15T21:15:49;96626.00;;;14.90
15062;BMP180;7630;50.306;8.566;2022-11-15T21:19:50;96613.00;;;14.60
15062;BMP180;7630;50.306;8.566;2022-11-15T21:23:52;96612.00;;;15.60
15062;BMP180;7630;50.306;8.566;2022-11-15T21:27:53;96606.00;;;15.00
15062;BMP180;7630;50.306;8.566;2022-11-15T21:31:54;96595.00;;;14.10
15062;BMP180;7630;50.306;8.566;2022-11-15T21:35:56;96590.00;;;14.80
15062;BMP180;7630;50.306;8.566;2022-11-15T21:39:58;96591.00;;;14.90
15062;BMP180;7630;50.306;8.566;2022-11-15T21:44:00;96328.00;;;15.40
15062;BMP180;7630;50.306;8.566;2022-11-15T21:48:02;96580.00;;;14.80
15062;BMP180;7630;50.306;8.566;2022-11-15T21:52:04;96575.00;;;15.00
15062;BMP180;7630;50.306;8.566;2022-11-15T21:56:05;96576.00;;;15.40
15062;BMP180;7630;50.306;8.566;2022-11-15T22:00:09;96580.00;;;15.50
15062;BMP180;7630;50.306;8.566;2022-11-15T22:04:28;96573.00;;;14.20
15062;BMP180;7630;50.306;8.566;2022-11-15T22:08:29;96576.00;;;14.50
15062;BMP180;7630;50.306;8.566;2022-11-15T22:12:31;96575.00;;;15.10
15062;BMP180;7630;50.306;8.566;2022-11-15T22:16:32;96569.00;;;14.40
15062;BMP180;7630;50.306;8.566;2022-11-15T22:20:34;96570.00;;;14.40
15062;BMP180;7630;50.306;8.566;2022-11-15T22:24:37;96565.00;;;14.90
15062;BMP180;7630;50.306;8.566;2022-11-15T22:28:38;96557.00;;;14.60
15062;BMP180;7630;50.306;8.566;2022-11-15T22:32:40;96546.00;;;13.80
15062;BMP180;7630;50.306;8.566;2022-11-15T22:36:41;96546.00;;;14.20
15062;BMP180;7630;50.306;8.566;2022-11-15T22:40:46;96546.00;;;14.30
15062;BMP180;7630;50.306;8.566;2022-11-15T22:44:47;96534.00;;;14.50
15062;BMP180;7630;50.306;8.566;2022-11-15T22:48:48;96538.00;;;14.70
15062;BMP180;7630;50.306;8.566;2022-11-15T22:52:52;96535.00;;;14.00
15062;BMP180;7630;50.306;8.566;2022-11-15T22:56:53;96541.00;;;14.00
15062;BMP180;7630;50.306;8.566;2022-11-15T23:00:57;96532.00;;;13.30
15062;BMP180;7630;50.306;8.566;2022-11-15T23:04:58;96524.00;;;13.80
15062;BMP180;7630;50.306;8.566;2022-11-15T23:08:59;96504.00;;;13.20
15062;BMP180;7630;50.306;8.566;2022-11-15T23:13:04;96511.00;;;13.30
15062;BMP180;7630;50.306;8.566;2022-11-15T23:17:17;96504.00;;;13.60
15062;BMP180;7630;50.306;8.566;2022-11-15T23:26:00;96499.00;;;13.60
15062;BMP180;7630;50.306;8.566;2022-11-15T23:30:01;96503.00;;;13.90
15062;BMP180;7630;50.306;8.566;2022-11-15T23:34:21;96497.00;;;14.20
15062;BMP180;7630;50.306;8.566;2022-11-15T23:38:23;96499.00;;;14.20
15062;BMP180;7630;50.306;8.566;2022-11-15T23:42:24;96494.00;;;13.50
15062;BMP180;7630;50.306;8.566;2022-11-15T23:46:26;96492.00;;;13.90
15062;BMP180;7630;50.306;8.566;2022-11-15T23:50:27;96493.00;;;14.10
15062;BMP180;7630;50.306;8.566;2022-11-15T23:54:28;96488.00;;;14.60
15062;BMP180;7630;50.306;8.566;2022-11-15T23:58:30;96477.00;;;14.20
